Airfield :







YOU CAN JOIN US ON...

 
LOGIN :

Register | Disclaimer

   EN    FR    IT 

 









Legend :    VFR   Marginal VFR   IFR   Intensive IFR   Very Intensive IFR
Visi :
Ceiling :
>= 8 km
>= 3000ft
5 to 8 km
1000 to 3000 ft
1500m to 5 km
500 to 1000 ft
800 to 1500m
200 to 500 ft
< 800m
< 200 ft
Symbols :   Thunderstorms  Fog  Heavy snow  Heavy precipitations  Wind > 20 kt






- Airport Elevation : 285 ft
- IATA code : ALB


KALB - Albany International

CURRENT METAR :
  • 141819Z COR VRB04KT 10SM TS SCT036CB BKN120 BKN250 28/15 A2995 RMK AO2 LTG DSNT N AND NW TSB19 LTG ICCG DSNT NW-NE TS DSNT NW-NE MOV SE T02780150

EXPIRED METARs :
  • 141751Z 33007KT 280V340 10SM SCT036 SCT060 BKN120 BKN250 29/16 A2996 RMK AO2 LTG DSNT NW SLP143 CB DSNT NW AND N MOV S T02890156 10289 20222 51001
  • 141651Z 36009KT 10SM FEW027 BKN036 BKN120 BKN250 27/17 A2996 RMK AO2 SLP142 PRESENT WX VCSH T02670167
  • 141641Z 35007KT 10SM FEW027 BKN036 BKN120 BKN250 27/17 A2996 RMK AO2 PRESENT WX VCSH T02720172
  • 141551Z 34009KT 10SM BKN027 BKN140 BKN250 27/17 A2997 RMK AO2 SLP146 CB DSNT NW MOV SE T02670172

TAF KALB
Valid from the 14 at 18:00 until the 15 at 18:00 UTC


141824Z 1418/1518 33005KT P6SM VCTS BKN060CB
TEMPO 1418/1420 TSRA BKN060CB
FM142000 33005KT P6SM VCSH BKN060
TEMPO 1420/1421 6SM SHRA BKN060
FM142100 35005KT P6SM SCT060
KZBW FIR / North America



MET'MAP, your aeronautical weather chart ! - Copyright ORBIFLY December 2007 - Disclaimer

ORBIFLY MET'MAP TEAM :

Programming & Development : Alexandra Zaïnal
Concept & original design : Baudouin d'Aumeries
Assistance for programming : Marc-Olivier Méhu
Technical & hardware support : Manuel Goepfert

Contact : metmap@orbifly.com




SOURCES & CREDITS :

   NOAA